Time;durP1;ratioP1;P1;durP2;ratioP2;P2;SDS_P1;SDS_P2;PMS_P1;PMS_P2;Temp;Humidity;BMP_temperature;BMP_pressure;BME280_temperature;BME280_humidity;BME280_pressure;Samples;Min_cycle;Max_cycle;Signal;HPM_P1;HPM_P2
2023/08/07 00:04:43;;;;;;;7.60;3.00;;;;;;;14.06;100.00;100805.88;10477852;28;20064;-66
2023/08/07 00:09:44;;;;;;;7.90;2.92;;;;;;;13.95;100.00;100786.78;10418795;28;20482;-66
2023/08/07 00:14:47;;;;;;;7.30;3.30;;;;;;;14.00;100.00;100803.41;10412922;28;20042;-67
2023/08/07 00:19:47;;;;;;;7.28;3.42;;;;;;;13.99;100.00;100804.50;10400940;28;20054;-66
2023/08/07 00:24:48;;;;;;;5.97;3.20;;;;;;;13.55;100.00;100728.44;10415592;28;20042;-66
2023/08/07 00:29:48;;;;;;;7.22;3.13;;;;;;;14.03;100.00;100811.13;10415651;28;20046;-66
2023/08/07 00:34:49;;;;;;;5.32;3.58;;;;;;;14.07;100.00;100813.03;10415499;28;20042;-66
2023/08/07 00:39:49;;;;;;;7.72;3.97;;;;;;;14.11;100.00;100805.84;10411134;28;20049;-66
2023/08/07 00:44:50;;;;;;;9.50;3.67;;;;;;;14.17;100.00;100809.44;10413915;28;20037;-67
2023/08/07 00:49:50;;;;;;;3.80;3.15;;;;;;;14.23;100.00;100800.00;10413555;28;20133;-66
2023/08/07 00:54:51;;;;;;;6.05;2.80;;;;;;;14.36;100.00;100814.38;10412939;28;20049;-66
2023/08/07 00:59:51;;;;;;;6.80;3.85;;;;;;;14.37;100.00;100803.03;10415402;28;20038;-68
2023/08/07 01:04:52;;;;;;;4.18;2.85;;;;;;;14.40;100.00;100809.94;10377748;28;20041;-66
2023/08/07 01:09:53;;;;;;;4.95;2.92;;;;;;;13.84;100.00;100730.63;10398949;28;20176;-67
2023/08/07 01:15:16;;;;;;;7.68;3.63;;;;;;;14.48;100.00;100823.22;10398849;28;20045;-68
2023/08/07 01:20:16;;;;;;;8.77;3.45;;;;;;;14.51;100.00;100817.94;10447756;28;20051;-68
2023/08/07 01:25:17;;;;;;;8.73;3.40;;;;;;;14.45;100.00;100812.69;10440137;28;20048;-69
2023/08/07 01:30:26;;;;;;;4.22;2.67;;;;;;;14.35;100.00;100802.47;10445625;28;20037;-70
2023/08/07 01:35:29;;;;;;;6.25;3.00;;;;;;;14.31;100.00;100807.75;10449417;28;20162;-72
2023/08/07 01:40:29;;;;;;;7.60;3.35;;;;;;;14.31;100.00;100802.22;10425268;28;20044;-71
2023/08/07 01:45:31;;;;;;;7.47;4.22;;;;;;;14.36;100.00;100803.31;10432989;28;20029;-71
2023/08/07 01:50:32;;;;;;;5.65;3.30;;;;;;;14.27;100.00;100784.50;10418962;28;20033;-71
2023/08/07 01:55:32;;;;;;;7.57;3.30;;;;;;;14.31;100.00;100802.22;10438533;28;20046;-71
2023/08/07 02:00:34;;;;;;;7.78;3.75;;;;;;;14.25;100.00;100783.13;10441034;28;20096;-72
2023/08/07 02:05:35;;;;;;;9.18;4.22;;;;;;;14.21;100.00;100793.94;10428559;28;20061;-71
2023/08/07 02:10:35;;;;;;;5.82;3.33;;;;;;;14.19;100.00;100804.44;10437050;28;20558;-71
2023/08/07 02:15:36;;;;;;;5.78;4.05;;;;;;;14.14;100.00;100796.19;10433865;28;20112;-71
2023/08/07 02:20:36;;;;;;;8.38;4.18;;;;;;;14.08;100.00;100797.28;10419945;28;20045;-69
2023/08/07 02:25:37;;;;;;;9.57;4.32;;;;;;;13.97;100.00;100792.88;10416674;28;20099;-70
2023/08/07 02:30:37;;;;;;;7.70;5.22;;;;;;;13.90;100.00;100807.81;10363431;28;20045;-70
2023/08/07 02:35:38;;;;;;;10.50;6.30;;;;;;;13.73;100.00;100788.75;10472535;28;20032;-70
2023/08/07 02:40:38;;;;;;;12.70;6.72;;;;;;;13.71;100.00;100792.91;10445136;28;20057;-71
2023/08/07 02:45:39;;;;;;;8.52;5.75;;;;;;;13.59;100.00;100795.13;10401164;28;20096;-71
2023/08/07 02:50:39;;;;;;;12.52;5.85;;;;;;;13.47;100.00;100795.38;10414452;28;20064;-70
2023/08/07 02:55:43;;;;;;;10.20;5.22;;;;;;;13.37;100.00;100796.19;10417005;28;20049;-69
2023/08/07 03:00:44;;;;;;;10.15;6.03;;;;;;;13.31;100.00;100792.63;10397867;28;20041;-70
2023/08/07 03:05:50;;;;;;;11.13;5.57;;;;;;;13.25;100.00;100784.53;10374228;28;20042;-70
2023/08/07 03:10:52;;;;;;;11.00;5.40;;;;;;;13.22;100.00;100791.44;10432383;28;20028;-70
2023/08/07 03:16:02;;;;;;;12.55;5.63;;;;;;;13.24;100.00;100789.25;10453698;28;20044;-70
2023/08/07 03:21:03;;;;;;;9.05;6.03;;;;;;;13.25;100.00;100790.06;10431932;28;20043;-69
2023/08/07 03:26:05;;;;;;;11.07;5.00;;;;;;;13.33;100.00;100797.84;10433441;28;20063;-69
2023/08/07 03:31:05;;;;;;;16.58;6.18;;;;;;;13.30;100.00;100792.88;10439930;28;20037;-69
2023/08/07 03:36:06;;;;;;;14.55;5.40;;;;;;;13.30;100.00;100787.34;10388630;28;20048;-70
2023/08/07 03:41:07;;;;;;;9.00;4.57;;;;;;;13.29;100.00;100788.44;10422129;28;20045;-70
2023/08/07 03:46:08;;;;;;;9.45;4.72;;;;;;;13.30;100.00;100790.13;10443705;28;20044;-70
2023/08/07 03:51:09;;;;;;;10.45;4.18;;;;;;;13.29;100.00;100791.22;10444005;28;20029;-70
2023/08/07 03:56:09;;;;;;;12.82;4.93;;;;;;;13.29;100.00;100791.22;10444930;28;20044;-70
2023/08/07 04:01:10;;;;;;;12.52;4.97;;;;;;;13.29;100.00;100786.53;10447449;28;20037;-70
2023/08/07 04:06:15;;;;;;;14.18;4.63;;;;;;;13.34;100.00;100782.94;10403563;28;20451;-69
2023/08/07 04:11:16;;;;;;;12.82;6.00;;;;;;;13.39;100.00;100791.22;10468695;28;20122;-70
2023/08/07 04:16:17;;;;;;;16.88;5.72;;;;;;;13.40;100.00;100798.41;10474943;28;20064;-70
2023/08/07 04:21:17;;;;;;;13.57;5.57;;;;;;;13.43;100.00;100795.09;10474829;28;20109;-70
2023/08/07 04:26:18;;;;;;;10.13;4.07;;;;;;;13.43;100.00;100797.03;10474409;28;20404;-71
2023/08/07 04:31:19;;;;;;;11.50;5.03;;;;;;;13.52;100.00;100812.81;10466601;28;20083;-70
2023/08/07 04:36:20;;;;;;;12.70;4.93;;;;;;;13.21;100.00;100750.25;10472238;28;20040;-70
2023/08/07 04:41:22;;;;;;;12.05;3.55;;;;;;;13.59;100.00;100801.47;10463354;28;20099;-70
2023/08/07 04:46:22;;;;;;;12.15;5.15;;;;;;;13.69;100.00;100803.41;10405081;28;20045;-71
2023/08/07 04:51:23;;;;;;;10.00;4.20;;;;;;;13.66;100.00;100795.66;10407041;28;20045;-70
2023/08/07 04:56:23;;;;;;;11.90;4.35;;;;;;;13.70;100.00;100814.22;10413740;28;20050;-71
2023/08/07 05:01:24;;;;;;;12.77;3.97;;;;;;;13.62;100.00;100800.94;10412429;28;20044;-70
2023/08/07 05:06:24;;;;;;;12.82;4.03;;;;;;;13.73;100.00;100821.13;10415568;28;20421;-71
2023/08/07 05:11:25;;;;;;;12.60;4.72;;;;;;;13.78;100.00;100829.41;10393668;28;20038;-70
2023/08/07 05:16:25;;;;;;;23.17;4.53;;;;;;;13.83;100.00;100831.34;10447018;28;20037;-70
2023/08/07 05:21:26;;;;;;;14.52;4.38;;;;;;;13.90;100.00;100841.03;10427167;28;20044;-70
2023/08/07 05:26:26;;;;;;;18.50;4.93;;;;;;;13.82;100.00;100836.03;10457854;28;20041;-71
2023/08/07 05:31:27;;;;;;;19.73;5.28;;;;;;;13.99;100.00;100844.06;10460040;28;20497;-70
2023/08/07 05:36:29;;;;;;;12.32;3.95;;;;;;;14.08;100.00;100863.72;10460554;28;20052;-71
2023/08/07 05:41:30;;;;;;;17.77;4.15;;;;;;;14.18;100.00;100877.56;10461780;28;20056;-70
2023/08/07 05:46:30;;;;;;;11.00;3.42;;;;;;;14.18;100.00;100863.72;10461225;28;20552;-71
2023/08/07 05:51:31;;;;;;;15.02;3.67;;;;;;;14.37;100.00;100893.59;10439102;28;20040;-70
2023/08/07 05:56:31;;;;;;;21.00;4.35;;;;;;;14.42;100.00;100896.34;10460928;28;20520;-70
2023/08/07 06:01:32;;;;;;;14.68;3.00;;;;;;;14.30;100.00;100899.41;10461519;28;20125;-70
2023/08/07 06:06:35;;;;;;;11.43;2.92;;;;;;;14.30;100.00;100905.81;10449906;28;20037;-70
2023/08/07 06:11:35;;;;;;;17.52;3.90;;;;;;;14.17;100.00;100906.34;10460372;28;20048;-70
2023/08/07 06:16:35;;;;;;;13.65;3.55;;;;;;;14.20;100.00;100916.03;10459819;28;20048;-69
2023/08/07 06:21:36;;;;;;;20.17;4.50;;;;;;;14.50;100.00;100929.03;10459484;28;20044;-69
2023/08/07 06:26:36;;;;;;;15.15;3.00;;;;;;;14.56;100.00;100958.41;10459940;28;20041;-72
2023/08/07 06:31:37;;;;;;;16.88;3.22;;;;;;;14.21;100.00;100965.59;10449698;28;20045;-71
2023/08/07 06:36:37;;;;;;;9.98;3.05;;;;;;;14.00;100.00;100962.00;10458529;28;20814;-69
2023/08/07 06:41:39;;;;;;;7.90;2.95;;;;;;;14.01;100.00;100965.59;10452693;28;20088;-69
2023/08/07 06:46:39;;;;;;;10.05;3.85;;;;;;;14.00;100.00;100944.56;10458993;28;20405;-69
2023/08/07 06:51:39;;;;;;;11.55;3.05;;;;;;;14.08;100.00;100960.63;10458222;28;20037;-70
2023/08/07 06:56:43;;;;;;;11.13;3.42;;;;;;;14.17;100.00;100956.19;10448522;28;20033;-68
2023/08/07 07:01:43;;;;;;;18.83;4.00;;;;;;;14.35;100.00;100956.75;10458428;28;20044;-68
2023/08/07 07:06:44;;;;;;;12.88;3.42;;;;;;;14.73;100.00;100963.66;10459702;28;20041;-69
2023/08/07 07:11:44;;;;;;;12.57;2.70;;;;;;;14.55;100.00;100959.47;10459585;28;20064;-67
2023/08/07 07:16:44;;;;;;;11.30;2.58;;;;;;;14.45;100.00;100979.72;10448213;28;20045;-68
2023/08/07 07:21:45;;;;;;;10.98;2.40;;;;;;;14.27;100.00;100939.56;10457984;28;20040;-68
2023/08/07 07:26:45;;;;;;;7.05;2.78;;;;;;;14.68;100.00;100980.31;10452000;28;20066;-68
2023/08/07 07:31:46;;;;;;;11.68;3.15;;;;;;;14.63;100.00;101000.50;10457457;28;20033;-70
2023/08/07 07:36:47;;;;;;;10.65;3.08;;;;;;;14.36;100.00;101009.06;10417443;28;20584;-69
2023/08/07 07:41:47;;;;;;;14.18;2.85;;;;;;;14.08;100.00;100974.47;10441024;28;20045;-69
2023/08/07 07:46:48;;;;;;;8.70;2.88;;;;;;;14.59;100.00;101013.25;10459173;28;20079;-68
2023/08/07 07:51:49;;;;;;;4.72;1.88;;;;;;;14.84;100.00;101008.81;10455510;28;20052;-67
2023/08/07 07:56:49;;;;;;;8.48;2.10;;;;;;;14.65;100.00;101016.88;10442775;28;20502;-68
2023/08/07 08:01:51;;;;;;;12.77;2.08;;;;;;;14.70;100.00;101020.47;10442321;28;20060;-67
2023/08/07 08:06:51;;;;;;;8.73;2.33;;;;;;;14.96;100.00;101025.16;10441213;28;20045;-68
2023/08/07 08:11:52;;;;;;;14.07;2.03;;;;;;;15.17;100.00;101040.63;10440796;28;20037;-66
2023/08/07 08:16:52;;;;;;;9.88;3.15;;;;;;;15.42;100.00;101042.50;10444178;28;20143;-66
2023/08/07 08:21:53;;;;;;;8.07;2.63;;;;;;;15.71;100.00;101039.88;10442625;28;20056;-66
2023/08/07 08:26:53;;;;;;;3.10;1.75;;;;;;;15.84;100.00;101049.56;10441414;28;20048;-66
2023/08/07 08:31:55;;;;;;;6.05;1.52;;;;;;;15.34;100.00;101043.09;10436800;28;20060;-65
2023/08/07 08:36:55;;;;;;;7.30;1.80;;;;;;;15.32;100.00;101064.72;10440599;28;20044;-66
2023/08/07 08:41:55;;;;;;;8.48;1.65;;;;;;;15.39;100.00;101065.25;10434635;28;20505;-66
2023/08/07 08:46:56;;;;;;;6.60;1.95;;;;;;;15.38;100.00;101069.16;10459765;28;20037;-66
2023/08/07 08:51:56;;;;;;;6.57;1.77;;;;;;;15.54;100.00;101067.13;10450502;28;20485;-66
2023/08/07 08:56:58;;;;;;;9.48;2.45;;;;;;;15.81;100.00;101071.50;10445571;28;20489;-68
2023/08/07 09:01:59;;;;;;;6.22;1.73;;;;;;;16.35;100.00;101065.09;10456891;28;20041;-67
2023/08/07 09:07:00;;;;;;;7.13;1.58;;;;;;;16.57;100.00;101022.13;10465588;28;20041;-67
2023/08/07 09:12:01;;;;;;;8.70;1.60;;;;;;;16.95;100.00;101067.69;10483883;28;20040;-67
2023/08/07 09:17:01;;;;;;;6.00;1.73;;;;;;;16.59;100.00;101059.63;10458261;28;20132;-67
2023/08/07 09:22:02;;;;;;;8.07;1.90;;;;;;;16.18;100.00;101071.00;10421206;28;20045;-66
2023/08/07 09:27:02;;;;;;;8.43;1.52;;;;;;;16.67;100.00;101061.78;10420154;28;20053;-67
2023/08/07 09:32:08;;;;;;;4.95;1.83;;;;;;;17.21;100.00;101070.22;10470653;28;20076;-66
2023/08/07 09:37:08;;;;;;;9.27;1.80;;;;;;;16.92;100.00;101073.81;10416670;28;20042;-68
2023/08/07 09:42:16;;;;;;;7.10;3.00;;;;;;;16.27;100.00;101108.19;10421366;28;20485;-68
2023/08/07 09:47:17;;;;;;;8.43;2.00;;;;;;;16.56;100.00;101113.03;10445385;28;20110;-67
2023/08/07 09:52:18;;;;;;;8.43;3.28;;;;;;;16.40;100.00;101105.91;10456899;28;20045;-66
2023/08/07 09:57:18;;;;;;;6.80;2.20;;;;;;;15.98;100.00;101110.00;10425360;28;20048;-67
2023/08/07 10:02:20;;;;;;;7.25;2.40;;;;;;;16.89;100.00;101103.06;10425437;28;20045;-67
2023/08/07 10:07:21;;;;;;;7.03;1.88;;;;;;;16.43;100.00;101083.91;10453354;28;20056;-67
2023/08/07 10:12:22;;;;;;;5.07;1.75;;;;;;;16.38;100.00;101088.69;10434807;28;20081;-68
2023/08/07 10:17:22;;;;;;;5.13;2.00;;;;;;;16.75;100.00;101022.22;10453493;28;20048;-69
2023/08/07 10:22:24;;;;;;;4.75;1.40;;;;;;;17.34;100.00;101086.19;10458804;28;20422;-69
2023/08/07 10:27:25;;;;;;;5.53;1.05;;;;;;;16.81;100.00;101105.63;10437001;28;20326;-68
2023/08/07 10:32:26;;;;;;;6.32;1.38;;;;;;;16.65;100.00;101125.16;10448409;28;20048;-68
2023/08/07 10:37:42;;;;;;;7.55;2.88;;;;;;;16.53;100.00;101135.81;10449463;28;20041;-68
2023/08/07 10:42:54;;;;;;;5.17;1.50;;;;;;;17.04;100.00;101124.34;10446276;28;20041;-67
2023/08/07 10:48:02;;;;;;;7.50;1.60;;;;;;;17.37;100.00;101124.59;10444321;28;20044;-67
2023/08/07 10:53:03;;;;;;;8.23;2.58;;;;;;;17.18;100.00;101110.59;10440322;28;20044;-68
2023/08/07 10:58:03;;;;;;;9.93;1.70;;;;;;;17.20;100.00;101125.03;10456090;28;20199;-67
2023/08/07 11:03:04;;;;;;;7.22;1.20;;;;;;;16.87;100.00;101130.31;10450133;28;20045;-68
2023/08/07 11:08:04;;;;;;;11.73;1.90;;;;;;;16.56;100.00;101163.06;10459140;28;20045;-67
2023/08/07 11:13:04;;;;;;;10.32;2.92;;;;;;;16.57;100.00;101161.91;10437795;28;20061;-68
2023/08/07 11:18:05;;;;;;;9.27;2.15;;;;;;;16.99;100.00;101163.34;10455380;28;20515;-68
2023/08/07 11:23:06;;;;;;;5.57;1.42;;;;;;;17.34;100.00;101136.28;10455095;28;20504;-68
2023/08/07 11:28:08;;;;;;;2.72;1.15;;;;;;;17.33;100.00;101129.06;10472413;28;20416;-68
2023/08/07 11:33:08;;;;;;;2.85;0.90;;;;;;;18.01;100.00;101102.97;10478399;28;20131;-69
2023/08/07 11:38:09;;;;;;;3.83;0.98;;;;;;;18.74;100.00;101100.78;10481374;28;20071;-69
2023/08/07 11:43:09;;;;;;;3.90;1.20;;;;;;;18.60;100.00;101113.84;10453509;28;20059;-69
2023/08/07 11:48:10;;;;;;;3.97;1.30;;;;;;;17.39;100.00;101141.81;10460058;28;20102;-68
2023/08/07 11:53:10;;;;;;;7.28;1.40;;;;;;;16.75;100.00;101165.97;10472889;28;20460;-68
2023/08/07 11:58:11;;;;;;;6.07;1.48;;;;;;;16.99;100.00;101168.91;10430824;28;20081;-68
2023/08/07 12:03:36;;;;;;;5.18;1.63;;;;;;;17.38;100.00;101169.94;10473806;28;20041;-67
2023/08/07 12:08:38;;;;;;;4.28;1.40;;;;;;;17.66;100.00;101171.06;10409364;28;20042;-68
2023/08/07 12:13:40;;;;;;;5.38;1.58;;;;;;;17.59;100.00;101167.78;10413594;28;20614;-68
2023/08/07 12:18:44;;;;;;;4.65;1.30;;;;;;;17.68;100.00;101166.00;10397821;28;20057;-68
2023/08/07 12:23:44;;;;;;;6.65;1.95;;;;;;;17.84;100.00;101188.97;10394194;28;20049;-67
2023/08/07 12:28:45;;;;;;;5.50;1.00;;;;;;;18.66;100.00;101166.44;10413206;28;20125;-66
2023/08/07 12:33:45;;;;;;;4.95;0.90;;;;;;;18.74;100.00;101165.75;10409607;28;20064;-68
2023/08/07 12:38:46;;;;;;;2.70;0.90;;;;;;;17.80;100.00;101199.84;10412791;28;20043;-69
2023/08/07 12:43:46;;;;;;;4.80;1.15;;;;;;;17.33;100.00;101201.44;10414496;28;20042;-69
2023/08/07 12:48:47;;;;;;;6.55;0.90;;;;;;;17.28;100.00;101199.53;10414254;28;20131;-65
2023/08/07 12:53:47;;;;;;;2.90;1.25;;;;;;;18.04;100.00;101215.78;10415005;28;20053;-67
2023/08/07 12:58:50;;;;;;;3.20;1.02;;;;;;;18.31;100.00;101184.50;10409625;28;20046;-67
2023/08/07 13:03:50;;;;;;;2.63;0.98;;;;;;;18.42;100.00;101182.41;10453869;28;20071;-68
2023/08/07 13:08:51;;;;;;;2.65;1.10;;;;;;;19.89;100.00;101178.31;10455317;28;20048;-68
2023/08/07 13:13:51;;;;;;;2.25;0.80;;;;;;;21.03;100.00;101174.69;10451591;28;20044;-69
2023/08/07 13:18:52;;;;;;;3.78;1.33;;;;;;;20.52;100.00;101167.47;10453024;28;20045;-69
2023/08/07 13:23:52;;;;;;;4.50;1.10;;;;;;;19.22;100.00;101177.84;10454827;28;20041;-67
2023/08/07 13:28:52;;;;;;;7.55;2.38;;;;;;;18.53;100.00;101193.13;10458417;28;20041;-67
2023/08/07 13:33:53;;;;;;;4.18;1.35;;;;;;;18.90;100.00;101187.88;10461961;28;20045;-67
2023/08/07 13:38:53;;;;;;;6.60;1.20;;;;;;;19.12;100.00;101184.44;10461751;28;20087;-69
2023/08/07 13:43:54;;;;;;;4.78;1.10;;;;;;;18.63;100.00;101183.78;10452837;28;20048;-68
2023/08/07 13:48:54;;;;;;;6.50;1.73;;;;;;;18.15;100.00;101190.28;10462758;28;20037;-67
2023/08/07 13:53:55;;;;;;;3.28;1.45;;;;;;;18.01;100.00;101217.19;10456288;28;20048;-70
2023/08/07 13:58:55;;;;;;;4.82;1.33;;;;;;;17.46;100.00;101208.25;10459777;28;20041;-68
2023/08/07 14:03:56;;;;;;;4.57;1.60;;;;;;;17.42;100.00;101227.50;10461296;28;20069;-69
2023/08/07 14:08:56;;;;;;;7.65;1.77;;;;;;;17.33;100.00;101240.38;10462143;28;20338;-68
2023/08/07 14:13:57;;;;;;;3.75;1.20;;;;;;;17.34;100.00;101253.16;10461220;28;20044;-70
2023/08/07 14:18:58;;;;;;;3.53;1.27;;;;;;;17.63;100.00;101233.72;10460264;28;20036;-68
2023/08/07 14:23:58;;;;;;;5.65;1.40;;;;;;;17.84;100.00;101237.16;10421575;28;20068;-69
2023/08/07 14:28:59;;;;;;;6.00;1.27;;;;;;;17.91;100.00;101248.78;10442065;28;20037;-67
2023/08/07 14:33:59;;;;;;;9.23;2.28;;;;;;;17.45;100.00;101242.81;10460591;28;20041;-69
2023/08/07 14:39:00;;;;;;;6.10;2.15;;;;;;;17.51;100.00;101264.72;10454516;28;20037;-70
2023/08/07 14:44:00;;;;;;;3.92;1.20;;;;;;;17.28;100.00;101260.75;10458569;28;20061;-69
2023/08/07 14:49:01;;;;;;;4.72;2.35;;;;;;;18.42;100.00;101244.56;10455574;28;20033;-69
2023/08/07 14:54:01;;;;;;;5.70;1.80;;;;;;;18.68;100.00;101252.59;10458031;28;20037;-70
2023/08/07 14:59:02;;;;;;;9.10;2.10;;;;;;;18.81;100.00;101259.41;10456889;28;20029;-70
2023/08/07 15:04:02;;;;;;;5.70;2.20;;;;;;;18.48;100.00;101245.31;10453282;28;20033;-69
2023/08/07 15:09:03;;;;;;;10.27;1.20;;;;;;;18.52;100.00;101238.88;10458300;28;20079;-73
2023/08/07 15:14:04;;;;;;;3.85;1.60;;;;;;;18.50;100.00;101235.56;10458108;28;20112;-68
2023/08/07 15:19:05;;;;;;;5.95;1.05;;;;;;;19.42;100.00;101238.09;10456102;28;20075;-66
2023/08/07 15:24:05;;;;;;;6.90;0.93;;;;;;;19.63;98.97;101233.81;10452336;28;20068;-70
2023/08/07 15:29:06;;;;;;;3.50;1.25;;;;;;;19.45;100.00;101215.16;10452137;28;20063;-69
2023/08/07 15:34:06;;;;;;;2.17;0.90;;;;;;;18.67;100.00;101264.88;10458637;28;20044;-69
2023/08/07 15:39:07;;;;;;;6.05;1.10;;;;;;;18.03;100.00;101269.84;10457067;28;20040;-70
2023/08/07 15:44:08;;;;;;;5.82;1.20;;;;;;;18.32;100.00;101278.97;10457880;28;20036;-70
2023/08/07 15:49:09;;;;;;;5.20;1.50;;;;;;;18.06;100.00;101285.94;10449915;28;20124;-69
2023/08/07 15:54:09;;;;;;;4.20;0.95;;;;;;;18.22;100.00;101267.94;10454877;28;20120;-70
2023/08/07 15:59:10;;;;;;;6.30;1.13;;;;;;;17.81;100.00;101295.38;10450139;28;20041;-70
2023/08/07 16:04:10;;;;;;;4.15;0.95;;;;;;;17.05;100.00;101295.69;10449263;28;20037;-67
2023/08/07 16:09:11;;;;;;;5.40;1.13;;;;;;;17.07;100.00;101287.84;10454019;28;20041;-68
2023/08/07 16:14:11;;;;;;;4.72;1.00;;;;;;;17.23;100.00;101296.13;10454540;28;20060;-69
2023/08/07 16:19:11;;;;;;;3.03;1.20;;;;;;;16.99;100.00;101291.28;10454037;28;20045;-70
2023/08/07 16:24:12;;;;;;;3.30;0.82;;;;;;;16.80;100.00;101301.34;10455744;28;20071;-68
2023/08/07 16:29:13;;;;;;;6.53;1.13;;;;;;;16.66;100.00;101295.56;10456968;28;20037;-68
2023/08/07 16:34:13;;;;;;;3.03;1.13;;;;;;;16.52;100.00;101287.03;10454991;28;20037;-69
2023/08/07 16:39:13;;;;;;;6.50;1.92;;;;;;;16.93;100.00;101292.44;10455154;28;20037;-68
2023/08/07 16:44:14;;;;;;;9.93;1.00;;;;;;;16.92;100.00;101299.09;10453452;28;20052;-69
2023/08/07 16:49:15;;;;;;;4.50;1.10;;;;;;;16.77;100.00;101288.03;10455381;28;20044;-68
2023/08/07 16:54:15;;;;;;;3.70;0.88;;;;;;;16.55;100.00;101286.44;10455450;28;20103;-68
2023/08/07 16:59:17;;;;;;;3.53;0.70;;;;;;;16.44;100.00;101298.72;10450416;28;20386;-69
2023/08/07 17:04:18;;;;;;;3.33;0.90;;;;;;;16.40;100.00;101294.84;10461359;28;20033;-69
2023/08/07 17:09:22;;;;;;;3.67;0.77;;;;;;;16.30;100.00;101296.53;10460384;28;20041;-68
2023/08/07 17:14:23;;;;;;;3.97;1.00;;;;;;;16.21;100.00;101280.75;10452760;28;20048;-67
2023/08/07 17:19:23;;;;;;;2.70;0.93;;;;;;;16.02;100.00;101299.94;10463791;28;20033;-68
2023/08/07 17:24:24;;;;;;;2.78;0.90;;;;;;;15.86;100.00;101308.31;10462957;28;20060;-67
2023/08/07 17:29:24;;;;;;;4.32;1.23;;;;;;;15.80;100.00;101298.31;10464270;28;20393;-67
2023/08/07 17:34:25;;;;;;;3.42;1.20;;;;;;;15.87;100.00;101290.53;10454127;28;20045;-68
2023/08/07 17:39:25;;;;;;;3.22;1.08;;;;;;;15.91;100.00;101288.03;10434390;28;20040;-67
2023/08/07 17:44:26;;;;;;;6.43;1.55;;;;;;;15.89;100.00;101291.06;10433538;28;20037;-67
2023/08/07 17:49:26;;;;;;;5.43;1.50;;;;;;;15.83;100.00;101297.75;10438732;28;20375;-68
2023/08/07 17:54:27;;;;;;;9.23;1.00;;;;;;;15.92;100.00;101290.53;10443140;28;20079;-66
2023/08/07 17:59:28;;;;;;;11.18;2.28;;;;;;;15.86;100.00;101279.72;10462067;28;20063;-67
2023/08/07 18:04:28;;;;;;;2.22;1.10;;;;;;;15.83;100.00;101283.88;10460604;28;20037;-66
2023/08/07 18:09:28;;;;;;;5.07;1.10;;;;;;;15.87;100.00;101276.63;10455911;28;20032;-67
2023/08/07 18:14:29;;;;;;;2.33;0.90;;;;;;;15.88;100.00;101267.22;10453617;28;20335;-66
2023/08/07 18:19:29;;;;;;;1.55;1.00;;;;;;;15.60;100.00;101251.13;10459846;28;20041;-68
2023/08/07 18:24:30;;;;;;;2.13;0.85;;;;;;;15.31;100.00;101274.69;10460484;28;20113;-66
2023/08/07 18:29:30;;;;;;;3.58;1.00;;;;;;;15.17;100.00;101275.53;10459430;28;21320;-66
2023/08/07 18:34:31;;;;;;;4.20;0.75;;;;;;;14.99;100.00;101271.34;10459336;28;20041;-67
2023/08/07 18:39:32;;;;;;;3.95;0.93;;;;;;;14.85;100.00;101271.03;10460003;28;20068;-66
2023/08/07 18:44:32;;;;;;;4.95;1.23;;;;;;;14.71;100.00;101282.63;10457033;28;20045;-67
2023/08/07 18:49:33;;;;;;;3.67;0.95;;;;;;;14.57;100.00;101280.63;10459342;28;20056;-66
2023/08/07 18:54:34;;;;;;;2.35;1.33;;;;;;;14.46;100.00;101285.28;10459408;28;20036;-67
2023/08/07 18:59:34;;;;;;;4.55;1.17;;;;;;;14.34;100.00;101277.19;10451990;28;20037;-67
2023/08/07 19:04:35;;;;;;;2.42;1.00;;;;;;;14.20;100.00;101276.84;10455331;28;20095;-66
2023/08/07 19:09:35;;;;;;;4.55;0.90;;;;;;;14.07;100.00;101274.53;10455772;28;20462;-67
2023/08/07 19:14:37;;;;;;;4.68;1.00;;;;;;;13.96;100.00;101275.59;10457438;28;20036;-67
2023/08/07 19:19:37;;;;;;;2.53;0.90;;;;;;;13.83;100.00;101279.66;10456419;28;20112;-66
2023/08/07 19:24:37;;;;;;;4.82;0.93;;;;;;;13.63;100.00;101274.81;10440061;28;20041;-66
2023/08/07 19:29:38;;;;;;;2.38;1.08;;;;;;;13.51;100.00;101278.59;10451228;28;20102;-66
2023/08/07 19:34:38;;;;;;;6.15;1.35;;;;;;;13.41;100.00;101275.72;10455663;28;20128;-66
2023/08/07 19:39:39;;;;;;;5.57;1.58;;;;;;;13.32;100.00;101271.81;10447884;28;20072;-67
2023/08/07 19:44:41;;;;;;;7.53;1.92;;;;;;;13.24;100.00;101275.00;10443507;28;20041;-67
2023/08/07 19:49:42;;;;;;;6.30;1.50;;;;;;;13.13;100.00;101272.16;10456487;28;20036;-66
2023/08/07 19:54:45;;;;;;;4.65;1.65;;;;;;;13.13;100.00;101263.84;10480786;28;20060;-66
2023/08/07 19:59:46;;;;;;;6.07;2.20;;;;;;;13.04;100.00;101257.16;10481821;28;20047;-67
2023/08/07 20:04:47;;;;;;;3.47;1.40;;;;;;;12.97;100.00;101259.28;10477308;28;20588;-66
2023/08/07 20:09:48;;;;;;;4.95;1.15;;;;;;;12.92;100.00;101260.06;10450589;28;20042;-66
2023/08/07 20:14:48;;;;;;;5.95;2.28;;;;;;;12.87;100.00;101261.94;10463784;28;20067;-65
2023/08/07 20:19:49;;;;;;;5.35;1.33;;;;;;;12.85;100.00;101251.13;10469039;28;20060;-66
2023/08/07 20:24:49;;;;;;;3.72;1.98;;;;;;;12.79;100.00;101251.34;10462493;28;20033;-66
2023/08/07 20:29:50;;;;;;;4.47;1.40;;;;;;;12.68;100.00;101242.94;10479588;28;20044;-65
2023/08/07 20:34:50;;;;;;;7.15;1.50;;;;;;;12.64;100.00;101250.06;10464545;28;20045;-67
2023/08/07 20:39:51;;;;;;;4.22;1.15;;;;;;;12.58;100.00;101245.59;10462494;28;20120;-66
2023/08/07 20:44:52;;;;;;;1.98;1.00;;;;;;;12.49;100.00;101256.25;10469589;28;20067;-66
2023/08/07 20:49:52;;;;;;;5.13;1.83;;;;;;;12.46;100.00;101248.50;10465923;28;20044;-66
2023/08/07 20:54:53;;;;;;;5.72;1.75;;;;;;;12.42;100.00;101246.50;10470083;28;20090;-67
2023/08/07 20:59:53;;;;;;;4.82;1.65;;;;;;;12.40;100.00;101248.69;10478032;28;20045;-66
2023/08/07 21:04:54;;;;;;;6.15;1.38;;;;;;;12.40;100.00;101243.16;10464861;28;20040;-66
2023/08/07 21:09:55;;;;;;;6.35;1.67;;;;;;;12.43;100.00;101232.44;10466732;28;20109;-66
2023/08/07 21:14:56;;;;;;;3.80;1.30;;;;;;;12.40;100.00;101221.06;10467745;28;20041;-67
2023/08/07 21:19:56;;;;;;;3.97;1.60;;;;;;;12.33;100.00;101213.00;10463843;28;20033;-65
2023/08/07 21:24:57;;;;;;;2.97;1.40;;;;;;;12.38;100.00;101215.81;10469897;28;20051;-66
2023/08/07 21:29:57;;;;;;;4.25;1.60;;;;;;;12.36;100.00;101209.72;10473871;28;20137;-67
2023/08/07 21:34:58;;;;;;;5.40;1.90;;;;;;;12.36;100.00;101215.25;10472029;28;20052;-65
2023/08/07 21:39:58;;;;;;;3.63;1.95;;;;;;;11.80;100.00;101120.69;10473523;28;20132;-66
2023/08/07 21:44:59;;;;;;;8.50;1.77;;;;;;;12.40;100.00;101204.50;10472537;28;20056;-67
2023/08/07 21:49:59;;;;;;;8.80;2.05;;;;;;;12.39;100.00;101186.28;10471586;28;20032;-66
2023/08/07 21:55:00;;;;;;;2.45;1.83;;;;;;;12.47;100.00;101191.34;10452724;28;20061;-66
2023/08/07 22:00:00;;;;;;;4.53;1.55;;;;;;;12.47;100.00;101202.38;10442325;28;20049;-66
2023/08/07 22:05:02;;;;;;;2.40;1.45;;;;;;;12.44;100.00;101187.19;10449167;28;20040;-67
2023/08/07 22:10:04;;;;;;;2.60;1.40;;;;;;;12.49;100.00;101191.91;10488023;28;20045;-66
2023/08/07 22:15:08;;;;;;;8.05;2.63;;;;;;;12.58;100.00;101195.88;10432398;28;20511;-66
2023/08/07 22:20:10;;;;;;;4.25;1.65;;;;;;;12.57;100.00;101188.69;10485008;28;20041;-66
2023/08/07 22:25:11;;;;;;;4.13;1.65;;;;;;;12.52;100.00;101186.69;10483763;28;20079;-66
2023/08/07 22:30:13;;;;;;;3.90;2.53;;;;;;;12.46;100.00;101181.38;10426112;28;20045;-66
2023/08/07 22:35:13;;;;;;;4.57;1.98;;;;;;;12.48;100.00;101173.66;10414706;28;20037;-66
2023/08/07 22:40:14;;;;;;;4.13;1.90;;;;;;;12.45;100.00;101179.72;10418648;28;20030;-66
2023/08/07 22:45:14;;;;;;;4.40;1.63;;;;;;;12.43;100.00;101170.88;10430409;28;20044;-66